createdAt,value
2022-12-17T00:01:41.986Z,-11.20
2022-12-17T00:04:27.611Z,-11.30
2022-12-17T00:07:14.072Z,-11.40
2022-12-17T00:09:59.576Z,-11.40
2022-12-17T00:12:45.849Z,-11.40
2022-12-17T00:15:32.827Z,-11.30
2022-12-17T00:18:22.272Z,-11.20
2022-12-17T00:21:12.575Z,-11.10
2022-12-17T00:23:58.114Z,-11.00
2022-12-17T00:26:43.949Z,-11.00
2022-12-17T00:29:29.683Z,-10.80
2022-12-17T00:32:17.106Z,-10.60
2022-12-17T00:35:02.920Z,-10.50
2022-12-17T00:37:49.071Z,-10.40
2022-12-17T00:40:34.937Z,-10.40
2022-12-17T00:43:21.092Z,-10.40
2022-12-17T00:46:06.980Z,-10.30
2022-12-17T00:48:54.467Z,-10.20
2022-12-17T00:51:42.445Z,-10.10
2022-12-17T00:54:28.211Z,-10.00
2022-12-17T00:57:14.121Z,-9.90
2022-12-17T00:59:59.550Z,-9.70
2022-12-17T01:02:45.836Z,-9.50
2022-12-17T01:05:33.035Z,-9.50
2022-12-17T01:08:29.808Z,-9.40
2022-12-17T01:11:18.148Z,-9.20
2022-12-17T01:14:04.192Z,-9.10
2022-12-17T01:16:49.797Z,-9.10
2022-12-17T01:19:35.781Z,-9.00
2022-12-17T01:22:23.699Z,-9.00
2022-12-17T01:25:09.193Z,-8.90
2022-12-17T01:27:55.198Z,-8.90
2022-12-17T01:30:42.080Z,-8.90
2022-12-17T01:33:29.401Z,-8.90
2022-12-17T01:36:15.952Z,-8.80
2022-12-17T01:39:03.000Z,-8.70
2022-12-17T01:41:49.530Z,-8.70
2022-12-17T01:45:03.011Z,-8.60
2022-12-17T01:47:51.279Z,-8.50
2022-12-17T01:50:38.523Z,-8.50
2022-12-17T01:53:26.777Z,-8.40
2022-12-17T01:56:14.115Z,-8.30
2022-12-17T01:59:00.933Z,-8.30
2022-12-17T02:01:49.393Z,-8.30
2022-12-17T02:04:35.980Z,-8.20
2022-12-17T02:07:35.815Z,-8.10
2022-12-17T02:10:33.660Z,-8.10
2022-12-17T02:13:27.256Z,-8.00
2022-12-17T02:16:17.259Z,-7.80
2022-12-17T02:19:10.372Z,-7.80
2022-12-17T02:21:58.390Z,-7.70
2022-12-17T02:24:54.731Z,-7.70
2022-12-17T02:27:43.087Z,-7.60
2022-12-17T02:30:30.736Z,-7.60
2022-12-17T02:33:19.789Z,-7.60
2022-12-17T02:36:10.973Z,-7.50
2022-12-17T02:38:57.191Z,-7.40
2022-12-17T02:41:46.764Z,-7.20
2022-12-17T02:44:36.453Z,-7.10
2022-12-17T02:47:24.712Z,-6.90
2022-12-17T02:50:13.907Z,-6.70
2022-12-17T02:53:03.850Z,-6.50
2022-12-17T02:55:50.201Z,-6.40
2022-12-17T02:58:36.179Z,-6.20
2022-12-17T03:01:24.190Z,-6.10
2022-12-17T03:04:09.676Z,-6.00
2022-12-17T03:06:56.159Z,-6.00
2022-12-17T03:09:42.692Z,-5.90
2022-12-17T03:12:28.319Z,-5.80
2022-12-17T03:15:13.787Z,-5.90
2022-12-17T03:18:01.086Z,-5.80
2022-12-17T03:20:46.611Z,-5.60
2022-12-17T03:23:32.244Z,-5.60
2022-12-17T03:26:19.268Z,-5.50
2022-12-17T03:29:05.545Z,-5.40
2022-12-17T03:31:51.453Z,-5.20
2022-12-17T03:34:39.021Z,-5.10
2022-12-17T03:37:24.397Z,-4.90
2022-12-17T03:40:10.494Z,-4.90
2022-12-17T03:42:56.126Z,-4.80
2022-12-17T03:45:42.339Z,-4.60
2022-12-17T03:48:29.732Z,-4.50
2022-12-17T03:51:32.755Z,-4.40
2022-12-17T03:54:18.771Z,-4.30
2022-12-17T03:57:04.503Z,-4.30
2022-12-17T03:59:49.918Z,-4.20
2022-12-17T04:02:37.720Z,-4.20
2022-12-17T04:05:24.275Z,-4.10
2022-12-17T04:08:11.992Z,-4.20
2022-12-17T04:10:57.652Z,-4.10
2022-12-17T04:13:43.876Z,-4.10
2022-12-17T04:16:44.110Z,-4.10
2022-12-17T04:19:30.352Z,-4.10
2022-12-17T04:22:15.782Z,-4.00
2022-12-17T04:25:03.203Z,-4.00
2022-12-17T04:27:48.747Z,-3.90
2022-12-17T04:30:35.831Z,-3.90
2022-12-17T04:33:21.655Z,-3.80
2022-12-17T04:36:07.159Z,-3.80
2022-12-17T04:38:52.996Z,-3.70
2022-12-17T04:41:41.212Z,-3.70
2022-12-17T04:44:26.816Z,-3.70
2022-12-17T04:47:12.531Z,-3.70
2022-12-17T04:50:00.308Z,-3.60
2022-12-17T04:52:45.682Z,-3.60
2022-12-17T04:55:31.238Z,-3.60
2022-12-17T04:58:22.363Z,-3.50
2022-12-17T05:01:10.575Z,-3.50
2022-12-17T05:03:56.338Z,-3.40
2022-12-17T05:06:42.748Z,-3.40
2022-12-17T05:09:28.705Z,-3.40
2022-12-17T05:12:14.315Z,-3.40
2022-12-17T05:15:01.922Z,-3.30
2022-12-17T05:17:47.315Z,-3.30
2022-12-17T05:20:33.566Z,-3.30
2022-12-17T05:23:24.273Z,-3.30
2022-12-17T05:26:18.395Z,-3.30
2022-12-17T05:29:03.996Z,-3.40
2022-12-17T05:31:51.144Z,-3.30
2022-12-17T05:34:36.764Z,-3.30
2022-12-17T05:37:22.600Z,-3.30
2022-12-17T05:40:12.427Z,-3.30
2022-12-17T05:42:59.207Z,-3.30
2022-12-17T05:45:44.848Z,-3.30
2022-12-17T05:48:31.911Z,-3.20
2022-12-17T05:51:17.408Z,-3.20
2022-12-17T05:54:05.832Z,-3.20
2022-12-17T05:56:51.237Z,-3.20
2022-12-17T05:59:37.169Z,-3.20
2022-12-17T06:02:23.039Z,-3.20
2022-12-17T06:05:12.481Z,-3.10
2022-12-17T06:07:58.016Z,-3.10
2022-12-17T06:10:43.908Z,-3.10
2022-12-17T06:13:29.254Z,-3.10
2022-12-17T06:16:14.921Z,-3.10
2022-12-17T06:19:00.449Z,-3.00
2022-12-17T06:21:47.868Z,-3.00
2022-12-17T06:24:33.561Z,-3.00
2022-12-17T06:27:19.976Z,-3.00
2022-12-17T06:30:05.480Z,-3.00
2022-12-17T06:32:51.292Z,-3.00
2022-12-17T06:35:36.692Z,-3.00
2022-12-17T06:38:25.537Z,-3.00
2022-12-17T06:41:11.494Z,-3.00
2022-12-17T06:43:57.181Z,-3.00
2022-12-17T06:46:43.027Z,-3.00
2022-12-17T06:49:29.280Z,-2.90
2022-12-17T06:52:14.743Z,-2.90
2022-12-17T06:55:02.531Z,-3.00
2022-12-17T06:57:50.469Z,-3.00
2022-12-17T07:00:36.994Z,-2.90
2022-12-17T07:03:23.255Z,-3.00
2022-12-17T07:06:09.493Z,-3.00
2022-12-17T07:08:55.121Z,-3.00
2022-12-17T07:11:44.842Z,-3.00
2022-12-17T07:14:30.480Z,-3.20
2022-12-17T07:17:15.912Z,-3.30
2022-12-17T07:20:15.953Z,-3.20
2022-12-17T07:23:03.891Z,-3.00
2022-12-17T07:25:49.848Z,-3.10
2022-12-17T07:28:37.204Z,-3.00
2022-12-17T07:31:22.940Z,-2.90
2022-12-17T07:34:05.516Z,-2.80
2022-12-17T07:36:50.856Z,-2.80
2022-12-17T07:39:37.790Z,-2.70
2022-12-17T07:42:23.811Z,-2.70
2022-12-17T07:45:11.332Z,-2.70
2022-12-17T07:47:56.696Z,-2.70
2022-12-17T07:50:43.214Z,-2.70
2022-12-17T07:53:28.886Z,-2.70
2022-12-17T07:56:15.318Z,-2.70
2022-12-17T07:59:00.944Z,-2.60
2022-12-17T08:01:48.306Z,-2.50
2022-12-17T08:04:34.094Z,-2.50
2022-12-17T08:07:19.595Z,-2.50
2022-12-17T08:10:16.829Z,-2.50
2022-12-17T08:13:14.338Z,-2.50
2022-12-17T08:16:00.785Z,-2.40
2022-12-17T08:18:48.446Z,-2.40
2022-12-17T08:21:36.599Z,-2.40
2022-12-17T08:24:22.782Z,-2.30
2022-12-17T08:27:08.325Z,-2.20
2022-12-17T08:29:54.856Z,-2.10
2022-12-17T08:32:41.115Z,-2.10
2022-12-17T08:35:32.468Z,-2.10
2022-12-17T08:38:20.413Z,-2.00
2022-12-17T08:41:08.310Z,-2.00
2022-12-17T08:43:54.037Z,-1.90
2022-12-17T08:46:51.949Z,-1.80
2022-12-17T08:49:37.570Z,-1.80
2022-12-17T08:52:24.737Z,-1.70
2022-12-17T08:55:21.908Z,-1.70
2022-12-17T08:58:13.045Z,-1.70
2022-12-17T09:00:59.038Z,-1.60
2022-12-17T09:03:44.921Z,-1.50
2022-12-17T09:06:33.437Z,-1.50
2022-12-17T09:09:27.395Z,-1.40
2022-12-17T09:12:13.340Z,-1.30
2022-12-17T09:14:59.368Z,-1.30
2022-12-17T09:17:50.022Z,-1.20
2022-12-17T09:20:36.198Z,-1.20
2022-12-17T09:23:22.003Z,-1.20
2022-12-17T09:26:13.854Z,-1.20
2022-12-17T09:29:00.163Z,-1.20
2022-12-17T09:31:46.387Z,-1.10
2022-12-17T09:34:31.805Z,-1.10
2022-12-17T09:37:17.804Z,-1.00
2022-12-17T09:40:03.204Z,-0.90
2022-12-17T09:43:00.008Z,-0.80
2022-12-17T09:45:55.236Z,-0.70
2022-12-17T09:48:49.351Z,-0.50
2022-12-17T09:51:41.173Z,-0.30
2022-12-17T09:54:34.991Z,-0.20
2022-12-17T09:57:20.590Z,0.00
2022-12-17T10:00:08.028Z,0.10
2022-12-17T10:02:53.971Z,0.00
2022-12-17T10:05:44.020Z,-0.20
2022-12-17T10:08:32.864Z,-0.40
2022-12-17T10:11:34.360Z,-0.50
2022-12-17T10:14:30.445Z,-0.40
2022-12-17T10:17:17.852Z,-0.40
2022-12-17T10:20:07.533Z,-0.40
2022-12-17T10:23:02.180Z,-0.30
2022-12-17T10:25:47.980Z,-0.30
2022-12-17T10:28:35.346Z,-0.30
2022-12-17T10:31:27.103Z,-0.20
2022-12-17T10:34:16.392Z,-0.20
2022-12-17T10:37:05.296Z,-0.10
2022-12-17T10:39:51.819Z,-0.10
2022-12-17T10:42:40.104Z,0.00
2022-12-17T10:45:41.850Z,0.00
2022-12-17T10:48:38.490Z,0.00
2022-12-17T10:51:37.903Z,0.00
2022-12-17T10:54:48.955Z,0.00
2022-12-17T10:57:44.031Z,0.10
2022-12-17T11:00:49.331Z,0.10
2022-12-17T11:03:44.729Z,0.10
2022-12-17T11:06:40.491Z,0.00
2022-12-17T11:09:39.503Z,0.00
2022-12-17T11:12:30.854Z,0.10
2022-12-17T11:15:35.435Z,0.00
2022-12-17T11:18:22.643Z,0.00
2022-12-17T11:21:13.906Z,0.00
2022-12-17T11:24:09.709Z,0.00
2022-12-17T11:26:59.431Z,0.00
2022-12-17T11:29:45.365Z,0.10
2022-12-17T11:32:58.434Z,0.10
2022-12-17T11:35:50.846Z,0.10
2022-12-17T11:38:51.477Z,0.00
2022-12-17T11:41:49.453Z,0.10
2022-12-17T11:44:47.210Z,0.10
2022-12-17T11:47:42.362Z,0.10
2022-12-17T11:50:38.932Z,0.20
2022-12-17T11:53:35.710Z,0.20
2022-12-17T11:56:30.377Z,0.10
2022-12-17T11:59:25.655Z,0.20
2022-12-17T12:02:20.964Z,0.10
2022-12-17T12:05:26.579Z,0.10
2022-12-17T12:08:26.698Z,0.20
2022-12-17T12:11:20.483Z,0.10
2022-12-17T12:14:17.127Z,0.20
2022-12-17T12:17:12.347Z,0.20
2022-12-17T12:20:07.271Z,0.20
2022-12-17T12:23:00.536Z,0.20
2022-12-17T12:25:52.710Z,0.30
2022-12-17T12:28:49.631Z,0.20
2022-12-17T12:31:44.823Z,0.30
2022-12-17T12:34:35.880Z,0.30
2022-12-17T12:37:24.220Z,0.30
2022-12-17T12:40:18.914Z,0.30
2022-12-17T12:43:09.930Z,0.30
2022-12-17T12:46:03.861Z,0.30
2022-12-17T12:49:01.664Z,0.40
2022-12-17T12:51:53.292Z,0.40
2022-12-17T12:55:12.972Z,0.50
2022-12-17T12:58:02.872Z,0.50
2022-12-17T13:00:54.234Z,0.50
2022-12-17T13:03:46.604Z,0.60
2022-12-17T13:06:17.077Z,0.60
2022-12-17T13:08:46.643Z,0.60
2022-12-17T13:11:30.296Z,0.60
2022-12-17T13:14:02.614Z,0.50
2022-12-17T13:16:40.152Z,0.50
2022-12-17T13:19:22.456Z,0.40
2022-12-17T13:21:51.264Z,0.40
2022-12-17T13:24:29.490Z,0.30
2022-12-17T13:26:58.334Z,0.30
2022-12-17T13:29:30.840Z,0.30
2022-12-17T13:32:22.296Z,0.30
2022-12-17T13:35:10.518Z,0.30
2022-12-17T13:37:45.925Z,0.30
2022-12-17T13:40:32.285Z,0.30
2022-12-17T13:43:01.089Z,0.30
2022-12-17T13:45:30.218Z,0.20
2022-12-17T13:47:59.891Z,0.20
2022-12-17T13:50:34.885Z,0.20
2022-12-17T13:53:11.373Z,0.10
2022-12-17T13:55:43.109Z,0.10
2022-12-17T13:58:24.275Z,0.10
2022-12-17T14:00:53.181Z,0.10
2022-12-17T14:03:43.126Z,0.20
2022-12-17T14:06:13.511Z,0.10
2022-12-17T14:08:42.165Z,0.10
2022-12-17T14:11:31.059Z,0.10
2022-12-17T14:13:59.656Z,0.00
2022-12-17T14:16:28.331Z,0.10
2022-12-17T14:18:58.001Z,0.10
2022-12-17T14:21:27.733Z,0.00
2022-12-17T14:23:57.514Z,0.00
2022-12-17T14:26:27.392Z,0.00
2022-12-17T14:28:56.918Z,0.00
2022-12-17T14:31:29.445Z,0.00
2022-12-17T14:34:08.023Z,0.00
2022-12-17T14:36:39.268Z,0.00
2022-12-17T14:39:17.819Z,0.00
2022-12-17T14:42:05.107Z,-0.10
2022-12-17T14:44:36.598Z,-0.10
2022-12-17T14:47:12.834Z,-0.20
2022-12-17T14:49:55.914Z,-0.20
2022-12-17T14:52:37.760Z,-0.20
2022-12-17T14:55:31.890Z,-0.30
2022-12-17T14:58:26.108Z,-0.40
2022-12-17T15:01:01.100Z,-0.40
2022-12-17T15:03:32.852Z,-0.50
2022-12-17T15:06:03.741Z,-0.50
2022-12-17T15:08:41.100Z,-0.60
2022-12-17T15:11:11.364Z,-0.60
2022-12-17T15:13:41.415Z,-0.60
2022-12-17T15:16:10.940Z,-0.60
2022-12-17T15:18:39.730Z,-0.60
2022-12-17T15:21:08.698Z,-0.60
2022-12-17T15:23:42.308Z,-0.60
2022-12-17T15:26:11.424Z,-0.70
2022-12-17T15:28:40.999Z,-0.70
2022-12-17T15:31:10.744Z,-0.70
2022-12-17T15:33:39.345Z,-0.50
2022-12-17T15:36:08.320Z,-0.50
2022-12-17T15:38:36.822Z,-0.60
2022-12-17T15:41:27.951Z,-0.60
2022-12-17T15:43:56.515Z,-0.70
2022-12-17T15:46:25.429Z,-0.80
2022-12-17T15:48:54.161Z,-0.90
2022-12-17T15:51:23.611Z,-0.90
2022-12-17T15:53:52.121Z,-1.00
2022-12-17T15:56:22.840Z,-1.00
2022-12-17T15:58:51.600Z,-1.00
2022-12-17T16:01:21.928Z,-1.20
2022-12-17T16:03:50.706Z,-1.30
2022-12-17T16:06:21.939Z,-1.20
2022-12-17T16:08:50.064Z,-1.10
2022-12-17T16:11:18.646Z,-1.10
2022-12-17T16:13:48.883Z,-1.20
2022-12-17T16:16:16.999Z,-1.10
2022-12-17T16:18:46.830Z,-1.20
2022-12-17T16:21:15.291Z,-1.30
2022-12-17T16:23:44.788Z,-1.40
2022-12-17T16:26:13.750Z,-1.40
2022-12-17T16:28:42.373Z,-1.40
2022-12-17T16:31:13.282Z,-1.50
2022-12-17T16:33:43.178Z,-1.50
2022-12-17T16:36:15.586Z,-1.70
2022-12-17T16:38:45.982Z,-1.80
2022-12-17T16:41:15.824Z,-1.70
2022-12-17T16:43:44.673Z,-1.80
2022-12-17T16:46:27.034Z,-1.90
2022-12-17T16:48:56.215Z,-1.80
2022-12-17T16:51:29.472Z,-2.00
2022-12-17T16:53:58.422Z,-2.10
2022-12-17T16:56:28.424Z,-2.10
2022-12-17T16:58:58.034Z,-2.00
2022-12-17T17:01:29.681Z,-1.90
2022-12-17T17:03:59.103Z,-1.90
2022-12-17T17:06:33.401Z,-1.90
2022-12-17T17:09:04.826Z,-1.90
2022-12-17T17:11:33.170Z,-1.80
2022-12-17T17:14:01.410Z,-1.80
2022-12-17T17:16:30.731Z,-1.90
2022-12-17T17:18:59.016Z,-2.00
2022-12-17T17:21:30.776Z,-2.10
2022-12-17T17:24:01.706Z,-2.20
2022-12-17T17:26:32.408Z,-2.20
2022-12-17T17:29:01.167Z,-2.10
2022-12-17T17:34:18.496Z,-2.30
2022-12-17T17:36:48.137Z,-2.30
2022-12-17T17:39:16.235Z,-2.30
2022-12-17T17:41:44.988Z,-2.20
2022-12-17T17:44:15.192Z,-2.10
2022-12-17T17:46:43.543Z,-2.00
2022-12-17T17:49:12.731Z,-2.00
2022-12-17T17:54:33.936Z,-1.90
2022-12-17T17:57:02.198Z,-1.90
2022-12-17T17:59:33.678Z,-1.80
2022-12-17T18:02:03.619Z,-1.80
2022-12-17T18:04:32.249Z,-1.80
2022-12-17T18:09:50.055Z,-1.80
2022-12-17T18:12:35.715Z,-1.80
2022-12-17T18:15:14.306Z,-1.80
2022-12-17T18:17:44.107Z,-1.70
2022-12-17T18:20:13.145Z,-1.70
2022-12-17T18:22:41.382Z,-1.60
2022-12-17T18:25:11.009Z,-1.60
2022-12-17T18:27:39.461Z,-1.60
2022-12-17T18:30:08.473Z,-1.50
2022-12-17T18:32:36.949Z,-1.50
2022-12-17T18:35:06.305Z,-1.50
2022-12-17T18:37:34.726Z,-1.50
2022-12-17T18:40:03.992Z,-1.50
2022-12-17T18:42:51.101Z,-1.60
2022-12-17T18:45:19.256Z,-1.60
2022-12-17T18:47:47.521Z,-1.50
2022-12-17T18:50:15.834Z,-1.60
2022-12-17T18:52:44.017Z,-1.50
2022-12-17T18:55:12.582Z,-1.50
2022-12-17T18:57:42.335Z,-1.60
2022-12-17T19:00:11.837Z,-1.60
2022-12-17T19:02:40.249Z,-1.60
2022-12-17T19:05:09.263Z,-1.60
2022-12-17T19:07:37.427Z,-1.50
2022-12-17T19:10:06.653Z,-1.50
2022-12-17T19:12:35.331Z,-1.50
2022-12-17T19:15:05.439Z,-1.50
2022-12-17T19:17:34.014Z,-1.50
2022-12-17T19:20:02.260Z,-1.50
2022-12-17T19:22:30.433Z,-1.50
2022-12-17T19:24:58.580Z,-1.50
2022-12-17T19:27:26.903Z,-1.40
2022-12-17T19:29:57.047Z,-1.40
2022-12-17T19:32:26.986Z,-1.50
2022-12-17T19:34:55.441Z,-1.50
2022-12-17T19:37:23.855Z,-1.50
2022-12-17T19:39:51.963Z,-1.50
2022-12-17T19:42:33.419Z,-1.50
2022-12-17T19:45:05.866Z,-1.50
2022-12-17T19:47:35.867Z,-1.50
2022-12-17T19:50:04.312Z,-1.50
2022-12-17T19:52:32.956Z,-1.50
2022-12-17T19:55:02.322Z,-1.50
2022-12-17T19:57:30.552Z,-1.50
2022-12-17T20:00:00.959Z,-1.50
2022-12-17T20:02:32.832Z,-1.50
2022-12-17T20:05:02.851Z,-1.50
2022-12-17T20:07:31.127Z,-1.50
2022-12-17T20:09:59.199Z,-1.50
2022-12-17T20:12:27.946Z,-1.50
2022-12-17T20:14:57.111Z,-1.50
2022-12-17T20:17:28.638Z,-1.40
2022-12-17T20:19:58.018Z,-1.50
2022-12-17T20:22:28.048Z,-1.50
2022-12-17T20:24:56.132Z,-1.50
2022-12-17T20:27:24.756Z,-1.50
2022-12-17T20:29:53.928Z,-1.40
2022-12-17T20:32:22.267Z,-1.50
2022-12-17T20:34:50.514Z,-1.50
2022-12-17T20:37:18.818Z,-1.50
2022-12-17T20:39:49.161Z,-1.50
2022-12-17T20:42:18.179Z,-1.50
2022-12-17T20:44:53.105Z,-1.40
2022-12-17T20:47:22.031Z,-1.50
2022-12-17T20:49:50.503Z,-1.50
2022-12-17T20:52:18.669Z,-1.40
2022-12-17T20:54:49.400Z,-1.40
2022-12-17T20:57:17.653Z,-1.40
2022-12-17T20:59:45.936Z,-1.40
2022-12-17T21:02:15.042Z,-1.40
2022-12-17T21:04:43.577Z,-1.40
2022-12-17T21:07:12.130Z,-1.30
2022-12-17T21:09:40.655Z,-1.40
2022-12-17T21:12:12.470Z,-1.30
2022-12-17T21:14:41.051Z,-1.30
2022-12-17T21:17:09.282Z,-1.30
2022-12-17T21:19:37.980Z,-1.30
2022-12-17T21:22:06.822Z,-1.30
2022-12-17T21:24:37.053Z,-1.30
2022-12-17T21:27:09.570Z,-1.20
2022-12-17T21:29:42.953Z,-1.20
2022-12-17T21:32:11.300Z,-1.20
2022-12-17T21:34:39.734Z,-1.20
2022-12-17T21:37:09.744Z,-1.20
2022-12-17T21:39:38.139Z,-1.20
2022-12-17T21:42:25.826Z,-1.20
2022-12-17T21:44:55.654Z,-1.10
2022-12-17T21:47:25.135Z,-1.10
2022-12-17T21:49:53.354Z,-1.10
2022-12-17T21:52:21.592Z,-1.10
2022-12-17T21:54:50.171Z,-1.10
2022-12-17T21:57:18.386Z,-1.00
2022-12-17T21:59:46.892Z,-1.00
2022-12-17T22:02:17.122Z,-1.00
2022-12-17T22:04:45.481Z,-1.00
2022-12-17T22:07:17.552Z,-1.00
2022-12-17T22:10:03.683Z,-0.90
2022-12-17T22:12:57.805Z,-0.90
2022-12-17T22:15:32.264Z,-0.90
2022-12-17T22:18:16.143Z,-0.90
2022-12-17T22:20:44.410Z,-0.90
2022-12-17T22:23:12.624Z,-0.80
2022-12-17T22:25:42.205Z,-0.80
2022-12-17T22:28:11.814Z,-0.80
2022-12-17T22:30:57.794Z,-0.80
2022-12-17T22:34:19.297Z,-0.80
2022-12-17T22:40:21.113Z,-0.80
2022-12-17T22:41:05.135Z,-0.70
2022-12-17T22:44:38.735Z,-0.70
2022-12-17T22:45:08.985Z,-0.70
2022-12-17T22:47:38.355Z,-0.80
2022-12-17T22:50:08.684Z,-0.70
2022-12-17T22:52:37.589Z,-0.70
2022-12-17T22:55:07.153Z,-0.60
2022-12-17T22:57:38.242Z,-0.60
2022-12-17T23:00:17.947Z,-0.60
2022-12-17T23:02:50.051Z,-0.60
2022-12-17T23:05:19.973Z,-0.60
2022-12-17T23:07:48.056Z,-0.50
2022-12-17T23:10:16.349Z,-0.50
2022-12-17T23:12:54.411Z,-0.50
2022-12-17T23:15:29.124Z,-0.50
2022-12-17T23:17:59.590Z,-0.50
2022-12-17T23:20:32.162Z,-0.50
2022-12-17T23:23:01.633Z,-0.50
2022-12-17T23:25:30.723Z,-0.50
2022-12-17T23:27:59.004Z,-0.50
2022-12-17T23:30:28.213Z,-0.50
2022-12-17T23:32:56.346Z,-0.50
2022-12-17T23:35:24.540Z,-0.40
2022-12-17T23:37:54.517Z,-0.40
2022-12-17T23:40:23.343Z,-0.40
2022-12-17T23:42:51.401Z,-0.50
2022-12-17T23:45:20.099Z,-0.40
2022-12-17T23:47:48.271Z,-0.40
2022-12-17T23:50:16.384Z,-0.40
2022-12-17T23:52:44.772Z,-0.40
2022-12-17T23:55:14.397Z,-0.30
2022-12-17T23:57:43.042Z,-0.30
